Time;durP1;ratioP1;P1;durP2;ratioP2;P2;SDS_P1;SDS_P2;PMS_P1;PMS_P2;Temp;Humidity;BMP_temperature;BMP_pressure;BME280_temperature;BME280_humidity;BME280_pressure;Samples;Min_cycle;Max_cycle;Signal;HPM_P1;HPM_P2
2023/12/08 00:00:59;;;;;;;;;;;;;;;-144.99;100.00;52676.38;5055320;28;19925;-64
2023/12/08 00:03:26;;;;;;;;;;;;;;;-144.99;100.00;52688.63;5058161;28;19925;-65
2023/12/08 00:05:52;;;;;;;;;;;;;;;-144.99;100.00;52696.78;5057940;28;19932;-65
2023/12/08 00:08:20;;;;;;;;;;;;;;;-144.99;100.00;52643.78;5046912;28;19955;-64
2023/12/08 00:10:46;;;;;;;;;;;;;;;-144.99;100.00;52694.72;5047668;28;19963;-63
2023/12/08 00:13:13;;;;;;;;;;;;;;;-144.99;100.00;52704.94;5038244;28;20329;-64
2023/12/08 00:15:39;;;;;;;;;;;;;;;-144.99;100.00;52643.78;5047046;28;19925;-63
2023/12/08 00:18:06;;;;;;;;;;;;;;;-144.99;100.00;52656.00;5047267;28;19924;-63
2023/12/08 00:20:32;;;;;;;;;;;;;;;-144.99;100.00;52668.22;5050146;28;19925;-63
2023/12/08 00:22:59;;;;;;;;;;;;;;;-144.99;100.00;52668.22;5062394;28;19947;-63
2023/12/08 00:25:27;;;;;;;;;;;;;;;-144.99;100.00;52643.78;5045017;28;19932;-75
2023/12/08 00:27:54;;;;;;;;;;;;;;;-144.99;100.00;52635.63;5050480;28;19983;-74
2023/12/08 00:30:21;;;;;;;;;;;;;;;-144.99;100.00;52656.00;5036343;28;19948;-74
2023/12/08 00:32:47;;;;;;;;;;;;;;;-144.99;100.00;52664.16;5057143;28;19997;-73
2023/12/08 00:35:14;;;;;;;;;;;;;;;-144.99;100.00;52635.63;5048726;28;19975;-72
2023/12/08 00:37:40;;;;;;;;;;;;;;;-144.99;100.00;52662.13;5036848;28;19925;-74
2023/12/08 00:40:08;;;;;;;;;;;;;;;-144.99;100.00;52623.38;5045845;28;19936;-74
2023/12/08 00:42:36;;;;;;;;;;;;;;;-144.99;100.00;52668.22;5047253;28;19924;-74
2023/12/08 00:45:02;;;;;;;;;;;;;;;-144.99;100.00;52662.13;5043704;28;19972;-74
2023/12/08 00:47:29;;;;;;;;;;;;;;;-144.99;100.00;52656.00;5051839;28;19944;-73
2023/12/08 00:49:55;;;;;;;;;;;;;;;-144.99;100.00;52668.22;5048144;28;19932;-68
2023/12/08 00:52:22;;;;;;;;;;;;;;;-144.99;100.00;52639.69;5039233;28;20345;-65
2023/12/08 00:54:48;;;;;;;;;;;;;;;-144.99;100.00;52651.94;5050125;28;19929;-66
2023/12/08 00:57:15;;;;;;;;;;;;;;;-144.99;100.00;52660.09;5045927;28;20306;-66
2023/12/08 00:59:43;;;;;;;;;;;;;;;-144.99;100.00;52658.03;5053572;28;19959;-66
2023/12/08 01:02:10;;;;;;;;;;;;;;;-144.99;100.00;52692.69;5040374;28;19929;-66
2023/12/08 01:04:36;;;;;;;;;;;;;;;-144.99;100.00;52676.38;5061350;28;19952;-66
2023/12/08 01:07:03;;;;;;;;;;;;;;;-144.99;100.00;52682.50;5061374;28;19970;-74
2023/12/08 01:09:29;;;;;;;;;;;;;;;-144.99;100.00;52672.31;5044553;28;19971;-70
2023/12/08 01:11:56;;;;;;;;;;;;;;;-144.99;100.00;52656.00;5031812;28;20371;-71
2023/12/08 01:14:22;;;;;;;;;;;;;;;-144.99;100.00;52680.47;5044058;28;19991;-68
2023/12/08 01:16:50;;;;;;;;;;;;;;;-144.99;100.00;52656.00;5044121;28;19957;-73
2023/12/08 01:19:17;;;;;;;;;;;;;;;-144.99;100.00;52676.38;5044971;28;19976;-72
2023/12/08 01:21:43;;;;;;;;;;;;;;;-144.99;100.00;52651.94;5053281;28;19979;-73
2023/12/08 01:24:10;;;;;;;;;;;;;;;-144.99;100.00;52668.22;5050108;28;20361;-73
2023/12/08 01:26:36;;;;;;;;;;;;;;;-144.99;100.00;52676.38;5052258;28;19925;-73
2023/12/08 01:29:03;;;;;;;;;;;;;;;-144.99;100.00;52688.63;5047732;28;19972;-73
2023/12/08 01:31:29;;;;;;;;;;;;;;;-144.99;100.00;52668.22;5051068;28;20012;-73
2023/12/08 01:33:57;;;;;;;;;;;;;;;-144.99;100.00;52688.63;5051673;28;20035;-72
2023/12/08 01:36:23;;;;;;;;;;;;;;;-144.99;100.00;52688.63;5053476;28;20008;-72
2023/12/08 01:38:50;;;;;;;;;;;;;;;-144.99;100.00;52692.69;5054370;28;20027;-72
2023/12/08 01:41:16;;;;;;;;;;;;;;;-144.99;100.00;52658.03;5039373;28;19925;-74
2023/12/08 01:43:43;;;;;;;;;;;;;;;-144.99;100.00;52700.84;5060024;28;19948;-76
2023/12/08 01:46:12;;;;;;;;;;;;;;;-144.99;100.00;52668.22;5071753;28;20056;-74
2023/12/08 01:48:38;;;;;;;;;;;;;;;-144.99;100.00;52676.38;5054419;28;20027;-73
2023/12/08 01:51:06;;;;;;;;;;;;;;;-144.99;100.00;52723.28;5052063;28;19925;-73
2023/12/08 01:53:33;;;;;;;;;;;;;;;-144.99;100.00;52621.34;5046315;28;19936;-74
2023/12/08 01:56:00;;;;;;;;;;;;;;;-144.99;100.00;52656.00;5042613;28;19925;-74
2023/12/08 01:58:27;;;;;;;;;;;;;;;-144.99;100.00;52651.94;5054781;28;19967;-73
2023/12/08 02:00:54;;;;;;;;;;;;;;;-144.99;100.00;52668.22;5053627;28;19936;-72
2023/12/08 02:03:21;;;;;;;;;;;;;;;-144.99;100.00;52668.22;5047010;28;19956;-71
2023/12/08 02:05:48;;;;;;;;;;;;;;;-144.99;100.00;52680.47;5048110;28;19982;-71
2023/12/08 02:08:16;;;;;;;;;;;;;;;-144.99;100.00;52688.63;5047499;28;20015;-72
2023/12/08 02:10:43;;;;;;;;;;;;;;;-144.99;100.00;52688.63;5043089;28;19933;-72
2023/12/08 02:13:11;;;;;;;;;;;;;;;-144.99;100.00;52678.44;5034499;28;19944;-67
2023/12/08 02:15:38;;;;;;;;;;;;;;;-144.99;100.00;52639.69;5047365;28;19924;-67
2023/12/08 02:18:05;;;;;;;;;;;;;;;-144.99;100.00;52668.22;5044587;28;19940;-66
2023/12/08 02:20:32;;;;;;;;;;;;;;;-144.99;100.00;52649.88;5060036;28;20027;-70
2023/12/08 02:22:58;;;;;;;;;;;;;;;-144.99;100.00;52696.78;5060455;28;19963;-69
2023/12/08 02:25:26;;;;;;;;;;;;;;;-144.99;100.00;52680.47;5068530;28;19925;-71
2023/12/08 02:27:52;;;;;;;;;;;;;;;-144.99;100.00;52678.44;5064408;28;19974;-71
2023/12/08 02:30:19;;;;;;;;;;;;;;;-144.99;100.00;52649.88;5052245;28;19979;-71
2023/12/08 02:32:50;;;;;;;;;;;;;;;-144.99;100.00;52668.22;5061584;28;19982;-71
2023/12/08 02:35:19;;;;;;;;;;;;;;;-144.99;100.00;52660.09;5047450;28;20307;-71
2023/12/08 02:37:47;;;;;;;;;;;;;;;-144.99;100.00;52694.72;5043972;28;20398;-71
2023/12/08 02:40:14;;;;;;;;;;;;;;;-144.99;100.00;52704.94;5058235;28;20006;-71
2023/12/08 02:42:41;;;;;;;;;;;;;;;-144.99;100.00;52688.63;5052985;28;19925;-72
2023/12/08 02:45:08;;;;;;;;;;;;;;;-144.99;100.00;52704.94;5041957;28;19936;-72
2023/12/08 02:47:35;;;;;;;;;;;;;;;-144.99;100.00;52653.97;5050128;28;19979;-70
2023/12/08 02:50:01;;;;;;;;;;;;;;;-144.99;100.00;52676.38;5045079;28;19960;-71
2023/12/08 02:52:28;;;;;;;;;;;;;;;-144.99;100.00;52651.94;5037504;28;20375;-72
2023/12/08 02:54:54;;;;;;;;;;;;;;;-144.99;100.00;52647.84;5051708;28;19991;-72
2023/12/08 02:57:21;;;;;;;;;;;;;;;-144.99;100.00;52692.69;5052029;28;20525;-72
2023/12/08 02:59:49;;;;;;;;;;;;;;;-144.99;100.00;52684.53;5052895;28;20263;-73
2023/12/08 03:02:15;;;;;;;;;;;;;;;-144.99;100.00;52682.50;5068418;28;19924;-75
2023/12/08 03:04:42;;;;;;;;;;;;;;;-144.99;100.00;52700.84;5085852;28;19913;-78
2023/12/08 03:07:08;;;;;;;;;;;;;;;-144.99;100.00;52696.78;5054052;28;19925;-72
2023/12/08 03:09:35;;;;;;;;;;;;;;;-144.99;100.00;52668.22;5052114;28;19983;-73
2023/12/08 03:12:01;;;;;;;;;;;;;;;-144.99;100.00;52660.09;5044901;28;19960;-74
2023/12/08 03:14:28;;;;;;;;;;;;;;;-144.99;100.00;52684.53;5048671;28;19925;-73
2023/12/08 03:16:55;;;;;;;;;;;;;;;-144.99;100.00;52692.69;5046106;28;20422;-73
2023/12/08 03:19:22;;;;;;;;;;;;;;;-144.99;100.00;52696.78;5048000;28;19932;-73
2023/12/08 03:21:48;;;;;;;;;;;;;;;-144.99;100.00;52653.97;5051250;28;20541;-67
2023/12/08 03:24:15;;;;;;;;;;;;;;;-144.99;100.00;52684.53;5046892;28;19983;-66
2023/12/08 03:26:41;;;;;;;;;;;;;;;-144.99;100.00;52680.47;5055008;28;20370;-67
2023/12/08 03:29:08;;;;;;;;;;;;;;;-144.99;100.00;52709.00;5051427;28;19955;-66
2023/12/08 03:31:34;;;;;;;;;;;;;;;-144.99;100.00;52704.94;5050640;28;19925;-66
2023/12/08 03:34:02;;;;;;;;;;;;;;;-144.99;100.00;52692.69;5044856;28;20048;-66
2023/12/08 03:36:28;;;;;;;;;;;;;;;-144.99;100.00;52651.94;5037618;28;19936;-66
2023/12/08 03:38:55;;;;;;;;;;;;;;;-144.99;100.00;52692.69;5052050;28;19975;-66
2023/12/08 03:41:22;;;;;;;;;;;;;;;-144.99;100.00;52692.69;5045378;28;20027;-66
2023/12/08 03:43:48;;;;;;;;;;;;;;;-144.99;100.00;52668.22;5053323;28;19935;-65
2023/12/08 03:46:15;;;;;;;;;;;;;;;-144.99;100.00;52672.31;5070746;28;19975;-65
2023/12/08 03:48:41;;;;;;;;;;;;;;;-144.99;100.00;52692.69;5056886;28;19974;-66
2023/12/08 03:51:09;;;;;;;;;;;;;;;-144.99;100.00;52692.69;5050872;28;20192;-66
2023/12/08 03:53:35;;;;;;;;;;;;;;;-144.99;100.00;52692.69;5046355;28;19983;-70
2023/12/08 03:56:02;;;;;;;;;;;;;;;-144.99;100.00;52684.53;5048032;28;19931;-71
2023/12/08 03:58:29;;;;;;;;;;;;;;;-144.99;100.00;52656.00;5048790;28;20024;-70
2023/12/08 04:00:55;;;;;;;;;;;;;;;-144.99;100.00;52676.38;5045146;28;19925;-71
2023/12/08 04:03:22;;;;;;;;;;;;;;;-144.99;100.00;52656.00;5046539;28;19975;-74
2023/12/08 04:05:48;;;;;;;;;;;;;;;-144.99;100.00;52696.78;5052684;28;20047;-69
2023/12/08 04:08:16;;;;;;;;;;;;;;;-144.99;100.00;52704.94;5051945;28;19968;-71
2023/12/08 04:10:43;;;;;;;;;;;;;;;-144.99;100.00;52676.38;5044592;28;19972;-71
2023/12/08 04:13:09;;;;;;;;;;;;;;;-144.99;100.00;52658.03;5044428;28;20019;-71
2023/12/08 04:15:36;;;;;;;;;;;;;;;-144.99;100.00;52643.78;5042221;28;20120;-71
2023/12/08 04:18:02;;;;;;;;;;;;;;;-144.99;100.00;52647.84;5045569;28;19925;-72
2023/12/08 04:20:29;;;;;;;;;;;;;;;-144.99;100.00;52692.69;5048307;28;19925;-74
2023/12/08 04:22:55;;;;;;;;;;;;;;;-144.99;100.00;52684.53;5051197;28;19932;-68
2023/12/08 04:25:23;;;;;;;;;;;;;;;-144.99;100.00;52700.84;5059530;28;20031;-67
2023/12/08 04:27:49;;;;;;;;;;;;;;;-144.99;100.00;52696.78;5058316;28;19925;-68
2023/12/08 04:30:16;;;;;;;;;;;;;;;-144.99;100.00;52709.00;5051194;28;19971;-66
2023/12/08 04:32:42;;;;;;;;;;;;;;;-144.99;100.00;52676.38;5059582;28;20345;-67
2023/12/08 04:35:10;;;;;;;;;;;;;;;-144.99;100.00;52692.69;5049704;28;20446;-67
2023/12/08 04:37:36;;;;;;;;;;;;;;;-144.99;100.00;52684.53;5045666;28;19931;-66
2023/12/08 04:40:03;;;;;;;;;;;;;;;-144.99;100.00;52676.38;5044865;28;19998;-63
2023/12/08 04:42:31;;;;;;;;;;;;;;;-144.99;100.00;52690.66;5050346;28;20358;-65
2023/12/08 04:44:58;;;;;;;;;;;;;;;-144.99;100.00;52647.84;5047214;28;19979;-67
2023/12/08 04:47:24;;;;;;;;;;;;;;;-144.99;100.00;52676.38;5048932;28;19925;-67
2023/12/08 04:49:51;;;;;;;;;;;;;;;-144.99;100.00;52676.38;5055007;28;19928;-66
2023/12/08 04:52:17;;;;;;;;;;;;;;;-144.99;100.00;52639.69;5044648;28;20008;-67
2023/12/08 04:54:44;;;;;;;;;;;;;;;-144.99;100.00;52696.78;5067230;28;19925;-66
2023/12/08 04:57:10;;;;;;;;;;;;;;;-144.99;100.00;52631.53;5064657;28;19933;-66
2023/12/08 04:59:40;;;;;;;;;;;;;;;-144.99;100.00;52668.22;5057799;28;19926;-66
2023/12/08 05:02:15;;;;;;;;;;;;;;;-144.99;100.00;52643.78;5169293;27;19978;-65
2023/12/08 05:04:42;;;;;;;;;;;;;;;-144.99;100.00;52704.94;5163511;27;19927;-66
2023/12/08 05:07:09;;;;;;;;;;;;;;;-144.99;100.00;52698.81;5152523;27;20020;-68
2023/12/08 05:09:35;;;;;;;;;;;;;;;-144.99;100.00;52692.69;5150651;27;19953;-68
2023/12/08 05:12:02;;;;;;;;;;;;;;;-144.99;100.00;52688.63;5142708;27;19969;-67
2023/12/08 05:14:28;;;;;;;;;;;;;;;-144.99;100.00;52672.31;5130972;27;19963;-68
2023/12/08 05:16:55;;;;;;;;;;;;;;;-144.99;100.00;52676.38;5134834;27;20028;-69
2023/12/08 05:19:23;;;;;;;;;;;;;;;-144.99;100.00;52676.38;5136702;27;20331;-69
2023/12/08 05:21:49;;;;;;;;;;;;;;;-144.99;100.00;52680.47;5134560;27;19924;-64
2023/12/08 05:24:16;;;;;;;;;;;;;;;-144.99;100.00;52696.78;5131980;27;19970;-63
2023/12/08 05:26:43;;;;;;;;;;;;;;;-144.99;100.00;52694.72;5146989;27;19970;-67
2023/12/08 05:29:09;;;;;;;;;;;;;;;-144.99;100.00;52678.44;5141872;27;20342;-73
2023/12/08 05:31:36;;;;;;;;;;;;;;;-144.99;100.00;52672.31;5137503;27;20208;-73
2023/12/08 05:34:02;;;;;;;;;;;;;;;-144.99;100.00;52704.94;5134625;27;19934;-73
2023/12/08 05:36:30;;;;;;;;;;;;;;;-144.99;100.00;52676.38;5138608;27;20385;-72
2023/12/08 05:38:57;;;;;;;;;;;;;;;-144.99;100.00;52684.53;5144453;27;19968;-70
2023/12/08 05:41:23;;;;;;;;;;;;;;;-144.99;100.00;52647.84;5141759;27;19923;-70
2023/12/08 05:43:50;;;;;;;;;;;;;;;-144.99;100.00;52700.84;5148948;27;20341;-73
2023/12/08 05:46:15;;;;;;;;;;;;;;;-144.99;100.00;52692.69;5146373;27;19975;-73
2023/12/08 05:48:42;;;;;;;;;;;;;;;-144.99;100.00;52670.28;5144541;27;19931;-74
2023/12/08 05:51:08;;;;;;;;;;;;;;;-144.99;100.00;52688.63;5157563;27;19930;-73
2023/12/08 05:53:36;;;;;;;;;;;;;;;-144.99;100.00;52656.00;5142705;27;20169;-73
2023/12/08 05:56:03;;;;;;;;;;;;;;;-144.99;100.00;52688.63;5141023;27;19977;-73
2023/12/08 05:58:29;;;;;;;;;;;;;;;-144.99;100.00;52692.69;5141358;27;20405;-69
2023/12/08 06:00:56;;;;;;;;;;;;;;;-144.99;100.00;52725.31;5144065;27;19935;-68
2023/12/08 06:03:22;;;;;;;;;;;;;;;-144.99;100.00;52656.00;5137791;27;19930;-69
2023/12/08 06:05:49;;;;;;;;;;;;;;;-144.99;100.00;52676.38;5139680;27;20350;-68
2023/12/08 06:08:15;;;;;;;;;;;;;;;-144.99;100.00;52686.59;5128685;27;20377;-70
2023/12/08 06:10:43;;;;;;;;;;;;;;;-144.99;100.00;52700.84;5134503;27;19931;-67
2023/12/08 06:13:10;;;;;;;;;;;;;;;-144.99;100.00;52641.72;5118219;27;19978;-72
2023/12/08 06:15:36;;;;;;;;;;;;;;;-144.99;100.00;52723.28;4766356;27;9999676;-73
2023/12/08 06:18:03;;;;;;;;;;;;;;;-144.99;100.00;52627.47;5123320;27;20397;-72
2023/12/08 06:20:30;;;;;;;;;;;;;;;-144.99;100.00;52672.31;5130474;27;19923;-74
2023/12/08 06:22:56;;;;;;;;;;;;;;;-144.99;100.00;52684.53;5129683;27;19930;-71
2023/12/08 06:25:23;;;;;;;;;;;;;;;-144.99;100.00;52694.72;5133743;27;19960;-72
2023/12/08 06:27:51;;;;;;;;;;;;;;;-144.99;100.00;52664.16;5128662;27;19981;-72
2023/12/08 06:30:17;;;;;;;;;;;;;;;-144.99;100.00;52668.22;5139146;27;19922;-72
2023/12/08 06:32:44;;;;;;;;;;;;;;;-144.99;100.00;52631.53;5147797;27;19934;-72
2023/12/08 06:35:11;;;;;;;;;;;;;;;-144.99;100.00;52700.84;5127449;27;19932;-71
2023/12/08 06:37:37;;;;;;;;;;;;;;;-144.99;100.00;52680.47;5120662;27;19924;-72
2023/12/08 06:40:04;;;;;;;;;;;;;;;-144.99;100.00;52664.16;5116194;27;20047;-72
2023/12/08 06:42:31;;;;;;;;;;;;;;;-144.99;100.00;52639.69;5111945;27;19928;-73
2023/12/08 06:44:59;;;;;;;;;;;;;;;-144.99;100.00;52674.34;5116010;27;19928;-73
2023/12/08 06:47:26;;;;;;;;;;;;;;;-144.99;100.00;52690.66;5119374;27;19981;-73
2023/12/08 06:49:52;;;;;;;;;;;;;;;-144.99;100.00;52702.88;5117117;27;20340;-72
2023/12/08 06:52:19;;;;;;;;;;;;;;;-144.99;100.00;52664.16;5117168;27;20036;-72
2023/12/08 06:54:45;;;;;;;;;;;;;;;-144.99;100.00;52676.38;5120951;27;19928;-72
2023/12/08 06:57:12;;;;;;;;;;;;;;;-144.99;100.00;52660.09;5126507;27;20397;-72
2023/12/08 06:59:38;;;;;;;;;;;;;;;-144.99;100.00;52664.16;5122937;27;20022;-72
2023/12/08 07:02:06;;;;;;;;;;;;;;;-144.99;100.00;52664.16;5125393;27;20418;-72
2023/12/08 07:04:33;;;;;;;;;;;;;;;-144.99;100.00;52656.00;5136717;27;20146;-72
2023/12/08 07:06:59;;;;;;;;;;;;;;;-144.99;100.00;52684.53;5131026;27;20375;-72
2023/12/08 07:09:25;;;;;;;;;;;;;;;-144.99;100.00;52713.09;5125041;27;19986;-72
2023/12/08 07:11:52;;;;;;;;;;;;;;;-144.99;100.00;52647.84;5141433;27;19912;-72
2023/12/08 07:14:18;;;;;;;;;;;;;;;-144.99;100.00;52680.47;5134282;27;19931;-71
2023/12/08 07:16:45;;;;;;;;;;;;;;;-144.99;100.00;52643.78;5121455;27;20469;-72
2023/12/08 07:19:13;;;;;;;;;;;;;;;-144.99;100.00;52641.72;5126199;27;19949;-72
2023/12/08 07:21:42;;;;;;;;;;;;;;;-144.99;100.00;52688.63;5126087;27;19949;-72
2023/12/08 07:24:08;;;;;;;;;;;;;;;-144.99;100.00;52694.72;5123785;27;19966;-73
2023/12/08 07:26:35;;;;;;;;;;;;;;;-144.99;100.00;52688.63;5123797;27;19963;-72
2023/12/08 07:29:01;;;;;;;;;;;;;;;-144.99;100.00;52700.84;5125893;27;19927;-72
2023/12/08 07:31:28;;;;;;;;;;;;;;;-144.99;100.00;52676.38;5115739;27;19989;-72
2023/12/08 07:33:54;;;;;;;;;;;;;;;-144.99;100.00;52684.53;5119543;27;19924;-72
2023/12/08 07:36:22;;;;;;;;;;;;;;;-144.99;100.00;52684.53;5126882;27;19931;-73
2023/12/08 07:38:49;;;;;;;;;;;;;;;-144.99;100.00;52684.53;5124992;27;19938;-72
2023/12/08 07:41:15;;;;;;;;;;;;;;;-144.99;100.00;52672.31;5120228;27;19928;-72
2023/12/08 07:43:42;;;;;;;;;;;;;;;-144.99;100.00;52680.47;5130942;27;19931;-72
2023/12/08 07:46:08;;;;;;;;;;;;;;;-144.99;100.00;52651.94;5130530;27;19971;-74
2023/12/08 07:48:35;;;;;;;;;;;;;;;-144.99;100.00;52719.19;5123367;27;20061;-73
2023/12/08 07:51:01;;;;;;;;;;;;;;;-144.99;100.00;52684.53;5125682;27;19924;-72
2023/12/08 07:53:29;;;;;;;;;;;;;;;-144.99;100.00;52647.84;5146424;27;19934;-72
2023/12/08 07:55:56;;;;;;;;;;;;;;;-144.99;100.00;52684.53;4778433;27;10000044;-73
2023/12/08 07:58:22;;;;;;;;;;;;;;;-144.99;100.00;52676.38;5128895;27;19984;-73
2023/12/08 08:00:50;;;;;;;;;;;;;;;-144.99;100.00;52692.69;5126894;27;19965;-72
2023/12/08 08:03:16;;;;;;;;;;;;;;;-144.99;100.00;52680.47;5134577;27;19938;-72
2023/12/08 08:05:43;;;;;;;;;;;;;;;-144.99;100.00;52676.38;5118509;27;20340;-72
2023/12/08 08:08:09;;;;;;;;;;;;;;;-144.99;100.00;52651.94;5113002;27;20358;-73
2023/12/08 08:10:37;;;;;;;;;;;;;;;-144.99;100.00;52670.28;5124997;27;19988;-72
2023/12/08 08:13:03;;;;;;;;;;;;;;;-144.99;100.00;52711.03;5119890;27;19955;-72
2023/12/08 08:15:30;;;;;;;;;;;;;;;-144.99;100.00;52656.00;5119512;27;20225;-72
2023/12/08 08:17:56;;;;;;;;;;;;;;;-144.99;100.00;52664.16;5125313;27;19924;-72
2023/12/08 08:20:23;;;;;;;;;;;;;;;-144.99;100.00;52670.28;5119647;27;20067;-73
2023/12/08 08:22:50;;;;;;;;;;;;;;;-144.99;100.00;52660.09;5119337;27;19923;-72
2023/12/08 08:25:16;;;;;;;;;;;;;;;-144.99;100.00;52696.78;5132598;27;19966;-72
2023/12/08 08:27:44;;;;;;;;;;;;;;;-144.99;100.00;52684.53;5117115;27;19923;-72
2023/12/08 08:30:11;;;;;;;;;;;;;;;-144.99;100.00;52688.63;5123959;27;19984;-74
2023/12/08 08:32:38;;;;;;;;;;;;;;;-144.99;100.00;52694.72;5124487;27;20160;-70
2023/12/08 08:35:05;;;;;;;;;;;;;;;-144.99;100.00;52717.16;5143253;27;19912;-71
2023/12/08 08:37:31;;;;;;;;;;;;;;;-144.99;100.00;52656.00;5109370;28;19933;-72
2023/12/08 08:39:58;;;;;;;;;;;;;;;-144.99;100.00;52653.97;5124117;27;19962;-74
2023/12/08 08:42:24;;;;;;;;;;;;;;;-144.99;100.00;52713.09;5129046;27;19937;-73
2023/12/08 08:44:52;;;;;;;;;;;;;;;-144.99;100.00;52664.16;5129082;27;19996;-72
2023/12/08 08:47:20;;;;;;;;;;;;;;;-144.99;100.00;52709.00;5130626;27;19933;-74
2023/12/08 08:49:46;;;;;;;;;;;;;;;-144.99;100.00;52690.66;5127957;27;19941;-72
2023/12/08 08:52:13;;;;;;;;;;;;;;;-144.99;100.00;52713.09;5125594;27;20442;-72
2023/12/08 08:54:39;;;;;;;;;;;;;;;-144.99;100.00;52633.59;5118775;27;19927;-72
2023/12/08 08:57:06;;;;;;;;;;;;;;;-144.99;100.00;52660.09;5115919;27;19978;-72
2023/12/08 08:59:32;;;;;;;;;;;;;;;-144.99;100.00;52660.09;5122698;27;19924;-74
2023/12/08 09:02:00;;;;;;;;;;;;;;;-144.99;100.00;52635.63;5121900;27;20022;-72
2023/12/08 09:04:27;;;;;;;;;;;;;;;-144.99;100.00;52680.47;5131200;27;20484;-72
2023/12/08 09:06:56;;;;;;;;;;;;;;;-144.99;100.00;52662.13;5124950;27;19924;-72
2023/12/08 09:09:22;;;;;;;;;;;;;;;-144.99;100.00;52660.09;5120835;27;19999;-72
2023/12/08 09:11:49;;;;;;;;;;;;;;;-144.99;100.00;52651.94;5127272;27;20385;-72
2023/12/08 09:14:16;;;;;;;;;;;;;;;-144.99;100.00;52692.69;5135200;27;19944;-72
2023/12/08 09:16:42;;;;;;;;;;;;;;;-144.99;100.00;52658.03;5135848;27;20035;-72
2023/12/08 09:19:10;;;;;;;;;;;;;;;-144.99;100.00;52660.09;5116926;27;20442;-72
2023/12/08 09:21:37;;;;;;;;;;;;;;;-144.99;100.00;52684.53;5123977;27;19942;-72
2023/12/08 09:24:03;;;;;;;;;;;;;;;-144.99;100.00;52711.03;5120259;27;20355;-73
2023/12/08 09:26:30;;;;;;;;;;;;;;;-144.99;100.00;52682.50;5113759;28;19927;-72
2023/12/08 09:28:56;;;;;;;;;;;;;;;-144.99;100.00;52688.63;5124062;28;20385;-71
2023/12/08 09:31:23;;;;;;;;;;;;;;;-144.99;100.00;52660.09;5126501;27;19976;-71
2023/12/08 09:33:49;;;;;;;;;;;;;;;-144.99;100.00;52676.38;5114949;27;20333;-71
2023/12/08 09:36:17;;;;;;;;;;;;;;;-144.99;100.00;52651.94;5115457;27;20007;-72
2023/12/08 09:38:43;;;;;;;;;;;;;;;-144.99;100.00;52711.03;5118153;27;19970;-72
2023/12/08 09:41:10;;;;;;;;;;;;;;;-144.99;100.00;52668.22;5126963;28;19971;-72
2023/12/08 09:43:39;;;;;;;;;;;;;;;-144.99;100.00;52672.31;5126881;27;19945;-72
2023/12/08 09:46:06;;;;;;;;;;;;;;;-144.99;100.00;52692.69;5128779;27;19927;-73
2023/12/08 09:48:35;;;;;;;;;;;;;;;-144.99;100.00;52692.69;5115900;27;19975;-72
2023/12/08 09:51:04;;;;;;;;;;;;;;;-144.99;100.00;52700.84;5132856;27;19985;-77
2023/12/08 09:53:33;;;;;;;;;;;;;;;-144.99;100.00;52672.31;5118859;27;19928;-71
2023/12/08 09:56:00;;;;;;;;;;;;;;;-144.99;100.00;52709.00;5144632;27;20052;-71
2023/12/08 09:58:27;;;;;;;;;;;;;;;-144.99;100.00;52680.47;5126239;27;19928;-72
2023/12/08 10:00:55;;;;;;;;;;;;;;;-144.99;100.00;52684.53;5120590;27;20006;-73
2023/12/08 10:03:22;;;;;;;;;;;;;;;-144.99;100.00;52668.22;5117367;27;20354;-73
2023/12/08 10:05:49;;;;;;;;;;;;;;;-144.99;100.00;52676.38;5128261;27;19931;-73
2023/12/08 10:08:16;;;;;;;;;;;;;;;-144.99;100.00;52668.22;5115661;27;19980;-72
2023/12/08 10:10:44;;;;;;;;;;;;;;;-144.99;100.00;52700.84;5118887;27;19928;-73
2023/12/08 10:13:11;;;;;;;;;;;;;;;-144.99;100.00;52692.69;5119546;27;20590;-72
2023/12/08 10:15:41;;;;;;;;;;;;;;;-144.99;100.00;52656.00;5128362;27;19935;-71
2023/12/08 10:18:07;;;;;;;;;;;;;;;-144.99;100.00;52704.94;5122812;27;20391;-73
2023/12/08 10:20:34;;;;;;;;;;;;;;;-144.99;100.00;52674.34;5128999;27;19935;-73
2023/12/08 10:23:00;;;;;;;;;;;;;;;-144.99;100.00;52668.22;5121489;27;19981;-71
2023/12/08 10:25:27;;;;;;;;;;;;;;;-144.99;100.00;52698.81;5111310;28;19946;-71
2023/12/08 10:27:55;;;;;;;;;;;;;;;-144.99;100.00;52656.00;5120558;27;19924;-74
2023/12/08 10:30:23;;;;;;;;;;;;;;;-144.99;100.00;52692.69;5125932;27;19962;-72
2023/12/08 10:32:50;;;;;;;;;;;;;;;-144.99;100.00;52688.63;5111818;27;19931;-72
2023/12/08 10:35:16;;;;;;;;;;;;;;;-144.99;100.00;52692.69;5134239;27;19947;-73
2023/12/08 10:37:44;;;;;;;;;;;;;;;-144.99;100.00;52704.94;5157432;27;19942;-71
2023/12/08 10:40:12;;;;;;;;;;;;;;;-144.99;100.00;52686.59;4771157;27;9999972;-72
2023/12/08 10:42:39;;;;;;;;;;;;;;;-144.99;100.00;52696.78;5117399;27;19927;-72
2023/12/08 10:45:10;;;;;;;;;;;;;;;-144.99;100.00;52688.63;5123253;27;20422;-71
2023/12/08 10:47:38;;;;;;;;;;;;;;;-144.99;100.00;52660.09;5116434;27;19931;-72
2023/12/08 10:50:05;;;;;;;;;;;;;;;-144.99;100.00;52653.97;5126195;27;19938;-71
2023/12/08 10:52:32;;;;;;;;;;;;;;;-144.99;100.00;52633.59;5124740;27;19934;-72
2023/12/08 10:54:59;;;;;;;;;;;;;;;-144.99;100.00;52651.94;5126642;27;19959;-71
2023/12/08 10:57:26;;;;;;;;;;;;;;;-144.99;100.00;52619.31;5127941;27;19927;-73
2023/12/08 10:59:54;;;;;;;;;;;;;;;-144.99;100.00;52664.16;5138997;27;20393;-74
2023/12/08 11:02:31;;;;;;;;;;;;;;;-144.99;100.00;52700.84;5135787;27;20336;-73
2023/12/08 11:05:02;;;;;;;;;;;;;;;-144.99;100.00;52682.50;5127071;27;19931;-72
2023/12/08 11:07:32;;;;;;;;;;;;;;;-144.99;100.00;52688.63;5119541;27;19928;-73
2023/12/08 11:10:01;;;;;;;;;;;;;;;-144.99;100.00;52696.78;5112671;27;19942;-73
2023/12/08 11:12:28;;;;;;;;;;;;;;;-144.99;100.00;52668.22;5128236;27;19927;-74
2023/12/08 11:14:58;;;;;;;;;;;;;;;-144.99;100.00;52658.03;5124042;27;20413;-70
2023/12/08 11:17:31;;;;;;;;;;;;;;;-144.99;100.00;52647.84;5142475;27;21051;-70
2023/12/08 11:19:58;;;;;;;;;;;;;;;-144.99;100.00;52702.88;5127164;27;19973;-71
2023/12/08 11:22:25;;;;;;;;;;;;;;;-144.99;100.00;52684.53;5125073;27;20012;-72
2023/12/08 11:24:51;;;;;;;;;;;;;;;-144.99;100.00;52672.31;5119595;27;20343;-71
2023/12/08 11:27:23;;;;;;;;;;;;;;;-144.99;100.00;52676.38;5127738;27;19923;-72
2023/12/08 11:29:55;;;;;;;;;;;;;;;-144.99;100.00;52633.59;5109954;28;19934;-72
2023/12/08 11:32:30;;;;;;;;;;;;;;;-144.99;100.00;52692.69;5111880;27;19932;-71
2023/12/08 11:35:01;;;;;;;;;;;;;;;-144.99;100.00;52680.47;5123691;27;19968;-74
2023/12/08 11:37:29;;;;;;;;;;;;;;;-144.99;100.00;52688.63;5123754;27;19990;-71
2023/12/08 11:39:59;;;;;;;;;;;;;;;-144.99;100.00;52668.22;5114529;27;19981;-71
2023/12/08 11:42:26;;;;;;;;;;;;;;;-144.99;100.00;52704.94;5117674;27;20268;-73
2023/12/08 11:44:53;;;;;;;;;;;;;;;-144.99;100.00;52688.63;5124834;27;19932;-71
2023/12/08 11:47:21;;;;;;;;;;;;;;;-144.99;100.00;52647.84;5121343;27;19950;-72
2023/12/08 11:49:48;;;;;;;;;;;;;;;-144.99;100.00;52676.38;5121214;27;20266;-72
2023/12/08 11:52:18;;;;;;;;;;;;;;;-144.99;100.00;52684.53;5114323;27;19985;-72
2023/12/08 11:54:58;;;;;;;;;;;;;;;-144.99;100.00;52639.69;5120306;27;19967;-70
2023/12/08 11:57:25;;;;;;;;;;;;;;;-144.99;100.00;52688.63;5139215;27;19964;-71
2023/12/08 11:59:51;;;;;;;;;;;;;;;-144.99;100.00;52647.84;5121302;27;20381;-71
2023/12/08 12:02:18;;;;;;;;;;;;;;;-144.99;100.00;52684.53;5121779;27;20007;-73
2023/12/08 12:04:44;;;;;;;;;;;;;;;-144.99;100.00;52664.16;5112696;27;19991;-72
2023/12/08 12:07:11;;;;;;;;;;;;;;;-144.99;100.00;52680.47;5127893;27;19931;-73
2023/12/08 12:09:40;;;;;;;;;;;;;;;-144.99;100.00;52713.09;5119883;27;19936;-72
2023/12/08 12:12:10;;;;;;;;;;;;;;;-144.99;100.00;52668.22;5126209;27;20301;-72
2023/12/08 12:14:42;;;;;;;;;;;;;;;-144.99;100.00;52668.22;5117165;27;19924;-72
2023/12/08 12:17:10;;;;;;;;;;;;;;;-144.99;100.00;52684.53;5120943;27;20372;-72